Time;durP1;ratioP1;P1;durP2;ratioP2;P2;SDS_P1;SDS_P2;PMS_P1;PMS_P2;Temp;Humidity;BMP_temperature;BMP_pressure;BME280_temperature;BME280_humidity;BME280_pressure;Samples;Min_cycle;Max_cycle;Signal;HPM_P1;HPM_P2
2022/06/16 00:02:43;;;;;;;14.60;13.13;;;;;;;;;;10270012;28;20422;-91
2022/06/16 00:07:44;;;;;;;14.60;12.45;;;;;;;;;;10279027;28;20482;-92
2022/06/16 00:12:52;;;;;;;16.30;13.02;;;;;;;;;;10278492;28;20449;-91
2022/06/16 00:17:54;;;;;;;16.42;14.10;;;;;;;;;;10289811;28;20557;-93
2022/06/16 00:22:58;;;;;;;15.07;13.38;;;;;;;;;;10277884;28;20454;-93
2022/06/16 00:28:01;;;;;;;14.93;13.30;;;;;;;;;;10262390;28;20447;-92
2022/06/16 00:33:04;;;;;;;16.08;13.38;;;;;;;;;;10283258;28;21328;-92
2022/06/16 00:38:06;;;;;;;14.30;12.63;;;;;;;;;;10275940;28;20450;-93
2022/06/16 00:43:17;;;;;;;16.98;13.10;;;;;;;;;;10272490;28;20432;-92
2022/06/16 00:48:28;;;;;;;17.83;13.00;;;;;;;;;;10268208;28;20442;-92
2022/06/16 00:53:30;;;;;;;15.68;13.60;;;;;;;;;;10277681;28;20434;-93
2022/06/16 00:58:37;;;;;;;17.52;14.57;;;;;;;;;;10275813;28;20461;-91
2022/06/16 01:09:05;;;;;;;17.42;15.63;;;;;;;;;;10281481;28;20404;-92
2022/06/16 01:14:25;;;;;;;17.23;15.43;;;;;;;;;;10256927;28;20515;-92
2022/06/16 01:19:42;;;;;;;16.50;14.85;;;;;;;;;;10283783;28;20425;-92
2022/06/16 01:25:03;;;;;;;16.52;14.65;;;;;;;;;;10271912;28;20410;-93
2022/06/16 01:30:11;;;;;;;18.50;15.10;;;;;;;;;;10276880;28;20429;-93
2022/06/16 01:35:23;;;;;;;16.77;15.00;;;;;;;;;;10277144;28;20425;-92
2022/06/16 01:40:33;;;;;;;16.95;15.15;;;;;;;;;;10278226;28;20526;-92
2022/06/16 01:45:49;;;;;;;16.23;14.52;;;;;;;;;;10278186;28;20414;-92
2022/06/16 01:50:57;;;;;;;15.60;13.90;;;;;;;;;;10277738;28;20483;-92
2022/06/16 01:56:10;;;;;;;16.02;14.35;;;;;;;;;;10271995;28;20897;-92
2022/06/16 02:01:24;;;;;;;15.30;13.70;;;;;;;;;;10280116;28;20410;-93
2022/06/16 02:06:31;;;;;;;16.90;15.25;;;;;;;;;;10273804;28;20429;-92
2022/06/16 02:11:36;;;;;;;15.83;14.23;;;;;;;;;;10286947;28;20426;-93
2022/06/16 02:16:50;;;;;;;16.48;14.57;;;;;;;;;;10286470;28;21283;-92
2022/06/16 02:21:52;;;;;;;15.68;14.15;;;;;;;;;;10278233;28;20457;-92
2022/06/16 02:27:00;;;;;;;16.17;14.60;;;;;;;;;;10258336;28;20413;-92
2022/06/16 02:32:27;;;;;;;14.45;13.05;;;;;;;;;;10270156;28;20586;-92
2022/06/16 02:37:52;;;;;;;14.80;13.32;;;;;;;;;;10265386;28;20461;-92
2022/06/16 02:43:09;;;;;;;14.97;13.47;;;;;;;;;;10286700;28;20461;-92
2022/06/16 02:48:22;;;;;;;15.13;13.52;;;;;;;;;;10286585;28;20482;-92
2022/06/16 02:53:38;;;;;;;15.35;13.73;;;;;;;;;;10286795;28;20429;-93
2022/06/16 02:58:43;;;;;;;16.40;14.77;;;;;;;;;;10283075;28;20415;-92
2022/06/16 03:04:02;;;;;;;15.65;14.02;;;;;;;;;;10313272;28;20415;-92
2022/06/16 03:09:04;;;;;;;17.67;15.85;;;;;;;;;;10274968;28;20502;-92
2022/06/16 03:14:07;;;;;;;17.70;15.80;;;;;;;;;;10272221;28;20420;-92
2022/06/16 03:19:10;;;;;;;17.70;16.00;;;;;;;;;;10268076;28;20832;-92
2022/06/16 03:24:15;;;;;;;18.80;15.70;;;;;;;;;;10284333;28;20501;-93
2022/06/16 03:29:20;;;;;;;16.90;15.10;;;;;;;;;;10271732;28;20418;-92
2022/06/16 03:34:31;;;;;;;17.55;15.65;;;;;;;;;;10272578;28;20442;-92
2022/06/16 03:39:39;;;;;;;16.70;15.00;;;;;;;;;;10273308;28;20408;-93
2022/06/16 03:44:44;;;;;;;16.70;15.00;;;;;;;;;;10271208;28;20446;-92
2022/06/16 03:49:47;;;;;;;16.70;14.20;;;;;;;;;;10285874;28;20481;-92
2022/06/16 03:54:52;;;;;;;15.68;14.00;;;;;;;;;;10291952;28;20446;-92
2022/06/16 03:59:57;;;;;;;14.50;13.00;;;;;;;;;;10279200;28;20466;-93
2022/06/16 04:05:10;;;;;;;14.13;12.40;;;;;;;;;;10277996;28;20605;-92
2022/06/16 04:10:12;;;;;;;13.20;11.17;;;;;;;;;;10281799;28;20458;-92
2022/06/16 04:15:14;;;;;;;11.68;10.48;;;;;;;;;;10281856;28;20449;-92
2022/06/16 04:20:18;;;;;;;12.70;11.02;;;;;;;;;;10282914;28;20418;-92
2022/06/16 04:25:30;;;;;;;12.77;11.48;;;;;;;;;;10288786;28;20442;-92
2022/06/16 04:30:36;;;;;;;12.73;11.30;;;;;;;;;;10275055;28;20430;-92
2022/06/16 04:35:43;;;;;;;14.50;11.13;;;;;;;;;;10276935;28;20465;-92
2022/06/16 04:40:45;;;;;;;15.18;11.68;;;;;;;;;;10267078;28;20424;-93
2022/06/16 04:45:57;;;;;;;12.40;11.13;;;;;;;;;;10283669;28;20445;-92
2022/06/16 04:51:03;;;;;;;11.27;10.07;;;;;;;;;;10287290;28;20517;-91
2022/06/16 04:56:18;;;;;;;11.63;10.32;;;;;;;;;;10283811;28;20894;-93
2022/06/16 05:01:30;;;;;;;14.13;11.20;;;;;;;;;;10287063;28;20438;-92
2022/06/16 05:06:36;;;;;;;11.40;10.23;;;;;;;;;;10276234;28;20416;-93
2022/06/16 05:11:38;;;;;;;10.82;9.50;;;;;;;;;;10277566;28;20422;-92
2022/06/16 05:16:40;;;;;;;10.02;9.00;;;;;;;;;;10276302;28;20418;-92
2022/06/16 05:21:53;;;;;;;10.77;9.70;;;;;;;;;;10260751;28;20436;-91
2022/06/16 05:26:55;;;;;;;11.00;9.35;;;;;;;;;;10281591;28;20417;-92
2022/06/16 05:32:04;;;;;;;9.90;8.32;;;;;;;;;;10279042;28;20648;-93
2022/06/16 05:37:11;;;;;;;8.77;7.90;;;;;;;;;;10270511;28;20407;-92
2022/06/16 05:42:13;;;;;;;9.85;8.10;;;;;;;;;;10274214;28;20414;-92
2022/06/16 05:47:30;;;;;;;10.52;8.75;;;;;;;;;;10277940;28;20425;-92
2022/06/16 05:52:40;;;;;;;9.75;8.50;;;;;;;;;;10271062;28;20537;-91
2022/06/16 05:57:45;;;;;;;10.52;8.98;;;;;;;;;;10273473;28;20433;-91
2022/06/16 06:02:47;;;;;;;11.00;9.00;;;;;;;;;;10268612;28;20418;-85
2022/06/16 06:18:31;;;;;;;10.02;9.02;;;;;;;;;;10304932;28;20388;-89
2022/06/16 06:23:34;;;;;;;10.32;9.35;;;;;;;;;;10315166;28;20449;-90
2022/06/16 06:28:36;;;;;;;10.60;9.50;;;;;;;;;;10318249;28;20396;-90
2022/06/16 06:33:38;;;;;;;10.30;9.27;;;;;;;;;;10269200;28;20838;-90
2022/06/16 06:38:41;;;;;;;14.10;9.88;;;;;;;;;;10279679;28;20417;-90
2022/06/16 06:43:43;;;;;;;9.70;8.77;;;;;;;;;;10281712;28;20445;-88
2022/06/16 06:48:48;;;;;;;12.43;9.53;;;;;;;;;;10258536;28;20419;-89
2022/06/16 06:53:51;;;;;;;12.23;9.90;;;;;;;;;;10264345;28;20447;-89
2022/06/16 06:58:54;;;;;;;10.70;9.23;;;;;;;;;;10259346;28;20428;-90
2022/06/16 07:04:00;;;;;;;11.23;10.10;;;;;;;;;;10267215;28;20548;-90
2022/06/16 07:09:04;;;;;;;12.63;10.00;;;;;;;;;;10257938;28;20914;-80
2022/06/16 07:14:05;;;;;;;10.10;9.07;;;;;;;;;;10265200;28;20960;-80
2022/06/16 07:19:07;;;;;;;11.50;9.40;;;;;;;;;;10267589;28;20424;-80
2022/06/16 07:24:10;;;;;;;10.77;9.38;;;;;;;;;;10252659;28;20816;-80
2022/06/16 07:29:12;;;;;;;10.15;9.15;;;;;;;;;;10251064;28;20406;-80
2022/06/16 07:34:15;;;;;;;10.68;9.52;;;;;;;;;;10262756;28;20772;-91
2022/06/16 07:39:18;;;;;;;10.70;9.60;;;;;;;;;;10268399;28;20431;-91
2022/06/16 07:44:26;;;;;;;10.52;9.50;;;;;;;;;;10264595;28;20422;-92
2022/06/16 07:49:29;;;;;;;10.02;8.55;;;;;;;;;;10262334;28;20545;-91
2022/06/16 07:54:36;;;;;;;10.32;9.20;;;;;;;;;;10262491;28;20428;-92
2022/06/16 07:59:38;;;;;;;9.73;8.73;;;;;;;;;;10274118;28;20464;-91
2022/06/16 08:04:47;;;;;;;8.95;8.05;;;;;;;;;;10261752;28;21364;-92
2022/06/16 08:09:51;;;;;;;10.50;9.07;;;;;;;;;;10259056;28;20509;-92
2022/06/16 08:15:03;;;;;;;11.10;9.27;;;;;;;;;;10261232;28;20480;-94
2022/06/16 08:20:16;;;;;;;11.52;9.90;;;;;;;;;;10265637;28;20423;-93
2022/06/16 08:25:26;;;;;;;11.02;9.88;;;;;;;;;;10263040;28;20427;-93
2022/06/16 08:30:44;;;;;;;;;;;;;;;;;;;;;
2022/06/16 08:35:56;;;;;;;14.25;8.68;;;;;;;;;;10276647;28;20446;-94
2022/06/16 08:47:19;;;;;;;9.80;8.93;;;;;;;;;;10263884;28;20898;-92
2022/06/16 08:52:48;;;;;;;10.02;8.57;;;;;;;;;;10267561;28;20430;-94
2022/06/16 08:58:11;;;;;;;11.75;8.75;;;;;;;;;;10278850;28;20419;-93
2022/06/16 09:03:59;;;;;;;9.50;8.50;;;;;;;;;;10272670;28;20548;-93
2022/06/16 09:15:20;;;;;;;11.27;9.07;;;;;;;;;;10265477;28;20437;-93
2022/06/16 09:20:51;;;;;;;8.18;7.35;;;;;;;;;;10271657;28;20426;-94
2022/06/16 09:26:36;;;;;;;;;;;;;;;;;;;;;
2022/06/16 09:31:58;;;;;;;8.70;7.90;;;;;;;;;;10267825;28;20529;-94
2022/06/16 09:37:28;;;;;;;8.43;7.22;;;;;;;;;;10270738;28;20411;-93
2022/06/16 09:42:35;;;;;;;8.20;7.00;;;;;;;;;;10276340;28;20429;-89
2022/06/16 09:47:50;;;;;;;7.40;6.80;;;;;;;;;;10259797;28;20420;-89
2022/06/16 09:52:58;;;;;;;7.10;6.40;;;;;;;;;;10252554;28;20511;-89
2022/06/16 09:58:08;;;;;;;8.68;7.00;;;;;;;;;;10265436;28;20509;-89
2022/06/16 10:03:26;;;;;;;8.10;7.37;;;;;;;;;;10273084;28;20503;-88
2022/06/16 10:08:38;;;;;;;10.38;7.10;;;;;;;;;;10270450;28;20410;-89
2022/06/16 10:13:48;;;;;;;6.82;6.22;;;;;;;;;;10270923;28;20430;-89
2022/06/16 10:18:50;;;;;;;7.05;6.35;;;;;;;;;;10272899;28;20917;-89
2022/06/16 10:23:59;;;;;;;10.20;6.50;;;;;;;;;;10267288;28;20495;-88
2022/06/16 10:29:07;;;;;;;8.55;6.20;;;;;;;;;;10264880;28;20415;-88
2022/06/16 10:34:27;;;;;;;7.38;6.68;;;;;;;;;;10271617;28;20935;-89
2022/06/16 10:39:40;;;;;;;7.23;6.53;;;;;;;;;;10272019;28;20410;-88
2022/06/16 10:44:48;;;;;;;6.97;6.38;;;;;;;;;;10269320;28;20444;-88
2022/06/16 10:49:51;;;;;;;7.63;5.97;;;;;;;;;;10265755;28;20434;-89
2022/06/16 10:55:01;;;;;;;6.70;6.10;;;;;;;;;;10261514;28;20522;-88
2022/06/16 11:00:12;;;;;;;7.20;6.50;;;;;;;;;;10265843;28;20829;-89
2022/06/16 11:05:15;;;;;;;7.30;6.65;;;;;;;;;;10261967;28;20444;-88
2022/06/16 11:10:30;;;;;;;7.72;6.78;;;;;;;;;;10263186;28;20444;-89
2022/06/16 11:15:35;;;;;;;6.90;6.20;;;;;;;;;;10262510;28;20434;-89
2022/06/16 11:20:39;;;;;;;8.30;6.38;;;;;;;;;;10262987;28;20773;-88
2022/06/16 11:25:43;;;;;;;8.90;6.70;;;;;;;;;;10260099;28;20793;-88
2022/06/16 11:30:55;;;;;;;7.93;7.20;;;;;;;;;;10264835;28;20495;-88
2022/06/16 11:35:58;;;;;;;8.60;7.83;;;;;;;;;;10262609;28;20419;-89
2022/06/16 11:41:04;;;;;;;8.40;7.07;;;;;;;;;;10263694;28;20818;-89
2022/06/16 11:46:12;;;;;;;11.57;7.60;;;;;;;;;;10261167;28;20404;-89
2022/06/16 11:51:22;;;;;;;7.70;7.00;;;;;;;;;;10259498;28;20509;-88
2022/06/16 11:56:41;;;;;;;8.10;7.50;;;;;;;;;;10290713;23;20530;-96
2022/06/16 12:01:46;;;;;;;8.43;6.75;;;;;;;;;;10194516;29;20423;-96
2022/06/16 12:07:07;;;;;;;8.43;6.70;;;;;;;;;;10187498;29;20903;-96
2022/06/16 12:12:23;;;;;;;7.65;6.68;;;;;;;;;;10199057;29;20435;-96
2022/06/16 12:17:29;;;;;;;6.75;6.03;;;;;;;;;;10198404;29;20419;-96
2022/06/16 12:22:40;;;;;;;9.98;6.43;;;;;;;;;;10201883;29;20781;-96
2022/06/16 12:27:52;;;;;;;6.97;6.38;;;;;;;;;;10205223;29;21019;-96
2022/06/16 12:33:01;;;;;;;7.32;6.50;;;;;;;;;;10197256;29;20796;-96
2022/06/16 12:38:18;;;;;;;6.40;5.80;;;;;;;;;;10200883;29;20419;-96
2022/06/16 12:43:27;;;;;;;6.90;5.87;;;;;;;;;;10202581;29;20489;-96
2022/06/16 12:48:42;;;;;;;8.88;6.13;;;;;;;;;;10196089;29;20422;-96
2022/06/16 12:59:51;;;;;;;7.85;6.10;;;;;;;;;;10228742;28;20422;-96
2022/06/16 13:05:10;;;;;;;;;;;;;;;;;;;;;
2022/06/16 13:10:19;;;;;;;8.20;6.30;;;;;;;;;;10190587;29;20414;-96
2022/06/16 13:15:46;;;;;;;7.60;6.80;;;;;;;;;;10206715;29;20440;-96
2022/06/16 13:20:56;;;;;;;7.00;6.30;;;;;;;;;;10107483;29;20419;-96
2022/06/16 13:26:39;;;;;;;7.30;6.60;;;;;;;;;;10196422;29;20477;-96
2022/06/16 13:43:26;;;;;;;8.05;6.25;;;;;;;;;;10011250;29;20404;-96
2022/06/16 13:49:05;;;;;;;7.22;6.50;;;;;;;;;;10176428;29;20454;-96
2022/06/16 13:59:46;;;;;;;7.38;6.00;;;;;;;;;;10184303;29;20446;-96
2022/06/16 14:05:11;;;;;;;6.53;5.93;;;;;;;;;;10186938;29;20452;-96
2022/06/16 14:16:13;;;;;;;7.88;6.35;;;;;;;;;;10188001;29;20458;-96
2022/06/16 14:21:37;;;;;;;10.35;6.15;;;;;;;;;;10187176;29;20428;-96
2022/06/16 14:26:48;;;;;;;6.55;5.95;;;;;;;;;;10192411;29;20419;-96
2022/06/16 14:32:00;;;;;;;6.80;6.30;;;;;;;;;;10194929;29;20490;-96
2022/06/16 14:37:15;;;;;;;7.18;6.15;;;;;;;;;;10191881;29;20418;-96
2022/06/16 14:42:22;;;;;;;7.20;6.03;;;;;;;;;;10226316;23;20678;-95
2022/06/16 14:47:31;;;;;;;7.22;6.43;;;;;;;;;;10285786;28;20446;-96
2022/06/16 14:52:49;;;;;;;6.90;6.20;;;;;;;;;;10284988;28;20441;-96
2022/06/16 14:57:52;;;;;;;7.13;6.43;;;;;;;;;;10279356;28;20932;-96
2022/06/16 15:02:58;;;;;;;6.93;6.20;;;;;;;;;;10283561;28;20414;-95
2022/06/16 15:08:02;;;;;;;7.03;6.27;;;;;;;;;;10284210;28;20423;-96
2022/06/16 15:13:09;;;;;;;7.97;6.50;;;;;;;;;;10260838;28;22179;-96
2022/06/16 15:18:14;;;;;;;7.05;6.35;;;;;;;;;;10278921;28;20418;-96
2022/06/16 15:23:34;;;;;;;6.63;5.93;;;;;;;;;;10280579;28;20414;-96
2022/06/16 15:28:46;;;;;;;7.00;6.30;;;;;;;;;;10276918;28;20484;-96
2022/06/16 15:39:15;;;;;;;6.55;5.85;;;;;;;;;;10275427;28;20710;-96
2022/06/16 15:44:22;;;;;;;7.43;6.72;;;;;;;;;;10281684;28;20418;-96
2022/06/16 15:49:36;;;;;;;8.20;6.68;;;;;;;;;;10289109;28;20771;-96
2022/06/16 15:54:40;;;;;;;7.80;7.10;;;;;;;;;;10284546;28;20430;-96
2022/06/16 15:59:48;;;;;;;8.23;6.93;;;;;;;;;;10282628;28;20506;-96
2022/06/16 16:04:51;;;;;;;4.78;4.38;;;;;;;;;;10288059;28;20933;-96
2022/06/16 16:15:15;;;;;;;5.90;3.90;;;;;;;;;;10284659;28;20445;-96
2022/06/16 16:20:34;;;;;;;4.30;3.13;;;;;;;;;;10287206;28;20421;-96
2022/06/16 16:25:40;;;;;;;4.60;3.40;;;;;;;;;;10288407;28;20422;-96
2022/06/16 16:30:50;;;;;;;7.88;3.45;;;;;;;;;;10285888;28;20477;-96
2022/06/16 16:36:15;;;;;;;4.77;3.13;;;;;;;;;;10288425;28;20835;-96
2022/06/16 16:47:05;;;;;;;3.85;3.28;;;;;;;;;;10245061;29;20496;-96
2022/06/16 16:52:08;;;;;;;4.40;3.13;;;;;;;;;;10247247;29;20463;-95
2022/06/16 16:57:23;;;;;;;5.05;3.00;;;;;;;;;;10243284;28;20412;-95
2022/06/16 17:02:25;;;;;;;3.57;2.80;;;;;;;;;;10244504;29;20408;-95
2022/06/16 17:07:36;;;;;;;4.07;2.60;;;;;;;;;;10246640;29;20436;-96
2022/06/16 17:12:51;;;;;;;4.35;2.80;;;;;;;;;;10240015;29;20553;-96
2022/06/16 17:17:53;;;;;;;3.50;2.80;;;;;;;;;;10246457;29;20472;-95
2022/06/16 17:22:58;;;;;;;3.23;2.60;;;;;;;;;;10243699;29;20420;-96
2022/06/16 17:28:05;;;;;;;4.45;2.63;;;;;;;;;;10241175;29;20475;-96
2022/06/16 17:33:15;;;;;;;3.80;2.50;;;;;;;;;;10239650;29;20490;-96
2022/06/16 17:38:32;;;;;;;3.13;2.60;;;;;;;;;;10242080;29;20408;-96
2022/06/16 17:43:38;;;;;;;5.60;2.50;;;;;;;;;;10260172;28;20504;-96
2022/06/16 17:48:40;;;;;;;3.55;2.50;;;;;;;;;;10279985;28;20406;-96
2022/06/16 18:04:21;;;;;;;4.05;2.70;;;;;;;;;;10259676;28;20485;-84
2022/06/16 18:09:23;;;;;;;5.95;2.70;;;;;;;;;;10258820;28;20879;-83
2022/06/16 18:14:27;;;;;;;7.53;3.17;;;;;;;;;;10274776;28;20438;-90
2022/06/16 18:19:29;;;;;;;20.33;4.00;;;;;;;;;;10267636;28;20422;-91
2022/06/16 18:24:33;;;;;;;6.07;3.10;;;;;;;;;;10260521;28;20442;-89
2022/06/16 18:29:39;;;;;;;11.53;3.27;;;;;;;;;;10266594;28;20406;-85
2022/06/16 18:34:42;;;;;;;16.88;3.90;;;;;;;;;;10269365;28;20430;-86
2022/06/16 18:39:45;;;;;;;6.13;2.92;;;;;;;;;;10254159;28;20483;-87
2022/06/16 18:44:49;;;;;;;9.47;3.13;;;;;;;;;;10286934;28;20407;-77
2022/06/16 18:49:51;;;;;;;10.80;3.85;;;;;;;;;;10267653;28;20417;-94
2022/06/16 18:54:54;;;;;;;10.05;3.28;;;;;;;;;;10263317;28;20427;-93
2022/06/16 18:59:58;;;;;;;9.43;3.05;;;;;;;;;;10260394;28;20487;-93
2022/06/16 19:05:01;;;;;;;4.07;2.83;;;;;;;;;;10270467;28;20410;-95
2022/06/16 19:10:16;;;;;;;6.75;3.28;;;;;;;;;;10263901;28;20963;-92
2022/06/16 19:15:22;;;;;;;3.33;2.88;;;;;;;;;;10259654;28;20424;-92
2022/06/16 19:20:27;;;;;;;3.60;3.10;;;;;;;;;;10256593;28;21089;-93
2022/06/16 19:25:29;;;;;;;6.63;3.20;;;;;;;;;;10254285;28;20416;-92
2022/06/16 19:30:39;;;;;;;4.05;3.20;;;;;;;;;;10236046;28;20404;-93
2022/06/16 19:35:43;;;;;;;6.63;3.43;;;;;;;;;;10265581;28;20784;-90
2022/06/16 19:40:46;;;;;;;5.83;3.40;;;;;;;;;;10270330;28;20415;-94
2022/06/16 19:51:12;;;;;;;6.10;3.40;;;;;;;;;;10264545;28;20965;-96
2022/06/16 19:56:14;;;;;;;5.40;3.35;;;;;;;;;;10261264;28;20415;-96
2022/06/16 20:01:18;;;;;;;4.72;3.45;;;;;;;;;;10263526;28;20505;-96
2022/06/16 20:06:20;;;;;;;6.95;3.50;;;;;;;;;;10273647;28;21083;-96
2022/06/16 20:11:22;;;;;;;4.93;3.40;;;;;;;;;;10267434;28;20513;-96
2022/06/16 20:16:26;;;;;;;5.60;3.30;;;;;;;;;;10265038;28;20512;-96
2022/06/16 20:21:31;;;;;;;6.72;3.70;;;;;;;;;;10263429;28;20515;-96
2022/06/16 20:26:33;;;;;;;6.10;4.20;;;;;;;;;;10251470;28;20408;-96
2022/06/16 20:31:37;;;;;;;5.10;4.20;;;;;;;;;;10262031;28;20420;-96
2022/06/16 20:36:39;;;;;;;5.75;4.22;;;;;;;;;;10279429;28;20798;-96
2022/06/16 20:47:04;;;;;;;5.93;3.80;;;;;;;;;;10274661;28;21513;-96
2022/06/16 20:52:11;;;;;;;5.00;3.83;;;;;;;;;;10268966;28;20482;-96
2022/06/16 21:02:37;;;;;;;6.60;4.65;;;;;;;;;;10273404;28;20410;-96
2022/06/16 21:07:39;;;;;;;8.25;4.75;;;;;;;;;;10269332;28;21218;-96
2022/06/16 21:12:45;;;;;;;7.22;5.82;;;;;;;;;;10275585;28;20892;-96
2022/06/16 21:17:49;;;;;;;7.60;6.50;;;;;;;;;;10262337;28;20497;-92
2022/06/16 21:22:52;;;;;;;8.07;6.43;;;;;;;;;;10268953;28;20404;-92
2022/06/16 21:27:54;;;;;;;7.68;6.22;;;;;;;;;;10272050;28;20420;-93
2022/06/16 21:33:00;;;;;;;7.60;5.57;;;;;;;;;;10265792;28;20420;-93
2022/06/16 21:38:03;;;;;;;8.18;4.95;;;;;;;;;;10259036;28;20411;-94
2022/06/16 21:43:07;;;;;;;5.10;4.50;;;;;;;;;;10264545;28;20415;-93
2022/06/16 21:48:17;;;;;;;6.30;4.18;;;;;;;;;;10262451;28;20429;-94
2022/06/16 21:53:19;;;;;;;6.80;4.82;;;;;;;;;;10273835;28;20428;-93
2022/06/16 21:58:22;;;;;;;6.75;4.82;;;;;;;;;;10261446;28;20467;-94
2022/06/16 22:03:30;;;;;;;6.60;5.25;;;;;;;;;;10275750;28;20425;-93
2022/06/16 22:08:32;;;;;;;7.30;5.63;;;;;;;;;;10275542;28;20430;-93
2022/06/16 22:13:34;;;;;;;5.97;4.90;;;;;;;;;;10277470;28;20414;-93
2022/06/16 22:18:39;;;;;;;6.43;4.90;;;;;;;;;;10265722;28;21669;-94
2022/06/16 22:23:42;;;;;;;6.05;4.80;;;;;;;;;;10274578;28;20767;-94
2022/06/16 22:28:47;;;;;;;6.30;5.50;;;;;;;;;;10279953;28;20415;-94
2022/06/16 22:33:51;;;;;;;6.63;5.90;;;;;;;;;;10273491;28;20509;-93
2022/06/16 22:38:53;;;;;;;6.60;5.93;;;;;;;;;;10272404;28;20485;-94
2022/06/16 22:44:00;;;;;;;7.28;6.13;;;;;;;;;;10242304;28;20508;-93
2022/06/16 22:49:03;;;;;;;8.00;6.45;;;;;;;;;;10225754;29;20420;-93
2022/06/16 22:59:24;;;;;;;8.20;6.30;;;;;;;;;;10223706;29;20394;-94
2022/06/16 23:04:31;;;;;;;6.60;6.00;;;;;;;;;;10222425;29;20432;-92
2022/06/16 23:09:36;;;;;;;7.50;6.60;;;;;;;;;;10224772;29;20491;-93
2022/06/16 23:14:38;;;;;;;8.57;7.63;;;;;;;;;;10233250;29;20424;-93
2022/06/16 23:19:42;;;;;;;9.27;8.37;;;;;;;;;;10224080;29;20457;-93
2022/06/16 23:24:44;;;;;;;10.03;9.00;;;;;;;;;;10232294;29;20420;-94
2022/06/16 23:29:46;;;;;;;12.50;11.23;;;;;;;;;;10234474;29;20424;-93
2022/06/16 23:34:58;;;;;;;12.32;11.07;;;;;;;;;;10238555;29;20439;-94
2022/06/16 23:40:00;;;;;;;12.80;11.50;;;;;;;;;;10233090;29;20491;-94
2022/06/16 23:45:03;;;;;;;13.48;11.07;;;;;;;;;;10260626;28;20454;-93
2022/06/16 23:50:07;;;;;;;13.23;11.83;;;;;;;;;;10281767;28;20497;-93
2022/06/16 23:55:12;;;;;;;13.85;12.55;;;;;;;;;;10282038;28;21400;-93
